createdAt,value
2019-06-26T00:00:44.150Z,76.60
2019-06-26T00:01:44.160Z,77.29
2019-06-26T00:02:44.119Z,77.50
2019-06-26T00:03:44.127Z,77.50
2019-06-26T00:04:44.100Z,77.09
2019-06-26T00:05:44.087Z,77.59
2019-06-26T00:06:44.105Z,77.29
2019-06-26T00:07:44.075Z,76.79
2019-06-26T00:08:44.064Z,77.09
2019-06-26T00:09:44.069Z,77.59
2019-06-26T00:10:44.035Z,77.59
2019-06-26T00:11:44.057Z,77.63
2019-06-26T00:12:44.034Z,77.83
2019-06-26T00:13:44.007Z,78.03
2019-06-26T00:14:43.994Z,77.93
2019-06-26T00:15:43.986Z,77.13
2019-06-26T00:16:44.011Z,77.00
2019-06-26T00:17:44.001Z,77.09
2019-06-26T00:18:43.959Z,77.50
2019-06-26T00:19:43.942Z,77.09
2019-06-26T00:20:43.931Z,77.00
2019-06-26T00:21:43.960Z,77.39
2019-06-26T00:22:43.916Z,77.09
2019-06-26T00:23:43.907Z,77.09
2019-06-26T00:24:43.892Z,77.73
2019-06-26T00:25:43.880Z,76.93
2019-06-26T00:26:43.906Z,77.13
2019-06-26T00:27:43.858Z,77.39
2019-06-26T00:28:43.857Z,77.50
2019-06-26T00:29:43.838Z,77.59
2019-06-26T00:30:43.962Z,77.50
2019-06-26T00:31:43.864Z,77.20
2019-06-26T00:32:43.845Z,77.20
2019-06-26T00:33:43.798Z,77.29
2019-06-26T00:34:43.799Z,77.29
2019-06-26T00:35:43.777Z,77.39
2019-06-26T00:36:43.779Z,77.50
2019-06-26T00:37:43.777Z,77.39
2019-06-26T00:38:43.744Z,77.46
2019-06-26T00:39:43.732Z,77.56
2019-06-26T00:40:43.732Z,77.46
2019-06-26T00:41:43.714Z,77.50
2019-06-26T00:42:43.724Z,77.59
2019-06-26T00:43:43.692Z,77.26
2019-06-26T00:44:43.678Z,77.50
2019-06-26T00:45:43.682Z,76.96
2019-06-26T00:46:43.670Z,77.36
2019-06-26T00:47:43.683Z,77.36
2019-06-26T00:48:43.651Z,77.06
2019-06-26T00:49:43.626Z,77.66
2019-06-26T00:50:43.615Z,76.72
2019-06-26T00:51:43.613Z,76.72
2019-06-26T00:52:43.663Z,76.82
2019-06-26T00:53:43.588Z,76.62
2019-06-26T00:54:43.580Z,76.43
2019-06-26T00:55:43.567Z,76.13
2019-06-26T00:56:43.554Z,76.43
2019-06-26T00:57:43.626Z,77.02
2019-06-26T00:58:43.554Z,76.72
2019-06-26T00:59:43.529Z,76.32
2019-06-26T01:00:43.519Z,76.72
2019-06-26T01:01:43.503Z,76.86
2019-06-26T01:02:43.570Z,77.52
2019-06-26T01:03:43.480Z,77.42
2019-06-26T01:04:43.472Z,76.32
2019-06-26T01:05:43.464Z,76.62
2019-06-26T01:06:43.450Z,76.43
2019-06-26T01:07:43.469Z,76.68
2019-06-26T01:08:43.434Z,76.68
2019-06-26T01:09:43.436Z,76.98
2019-06-26T01:10:43.428Z,76.89
2019-06-26T01:11:43.403Z,76.39
2019-06-26T01:12:43.410Z,76.59
2019-06-26T01:13:57.294Z,76.39
2019-06-26T01:14:44.366Z,76.79
2019-06-26T01:15:43.365Z,76.29
2019-06-26T01:16:43.346Z,76.39
2019-06-26T01:17:43.358Z,76.19
2019-06-26T01:18:43.356Z,76.59
2019-06-26T01:19:43.309Z,76.39
2019-06-26T01:20:43.301Z,76.39
2019-06-26T01:21:43.297Z,76.29
2019-06-26T01:22:43.309Z,76.68
2019-06-26T01:23:43.273Z,76.68
2019-06-26T01:24:43.272Z,76.09
2019-06-26T01:25:43.250Z,76.29
2019-06-26T01:26:43.256Z,76.79
2019-06-26T01:27:43.260Z,76.68
2019-06-26T01:28:43.250Z,77.19
2019-06-26T01:29:43.207Z,77.38
2019-06-26T01:30:43.199Z,77.58
2019-06-26T01:31:43.186Z,77.38
2019-06-26T01:32:43.203Z,77.38
2019-06-26T01:33:43.167Z,77.09
2019-06-26T01:34:43.160Z,77.28
2019-06-26T01:35:43.163Z,77.38
2019-06-26T01:36:43.133Z,77.48
2019-06-26T01:37:43.150Z,77.28
2019-06-26T01:38:43.117Z,76.98
2019-06-26T01:39:43.105Z,76.79
2019-06-26T01:40:43.093Z,77.09
2019-06-26T01:41:43.083Z,77.28
2019-06-26T01:42:43.101Z,77.28
2019-06-26T01:43:43.068Z,76.98
2019-06-26T01:44:43.063Z,77.48
2019-06-26T01:45:43.043Z,77.78
2019-06-26T01:46:43.031Z,77.68
2019-06-26T01:47:43.044Z,78.08
2019-06-26T01:48:43.013Z,78.12
2019-06-26T01:49:43.004Z,78.31
2019-06-26T01:50:43.034Z,78.31
2019-06-26T01:51:42.994Z,78.22
2019-06-26T01:52:43.000Z,78.81
2019-06-26T01:53:42.957Z,78.55
2019-06-26T01:54:42.949Z,78.75
2019-06-26T01:55:42.936Z,79.05
2019-06-26T01:56:42.921Z,79.65
2019-06-26T01:57:42.943Z,79.55
2019-06-26T01:58:42.906Z,79.45
2019-06-26T01:59:42.894Z,79.45
2019-06-26T02:00:42.891Z,79.45
2019-06-26T02:01:42.925Z,79.75
2019-06-26T02:02:42.886Z,79.55
2019-06-26T02:03:42.849Z,79.75
2019-06-26T02:04:42.848Z,80.08
2019-06-26T02:05:42.836Z,79.88
2019-06-26T02:06:42.818Z,80.68
2019-06-26T02:07:42.833Z,80.58
2019-06-26T02:08:42.804Z,80.48
2019-06-26T02:09:42.801Z,80.68
2019-06-26T02:10:42.815Z,80.68
2019-06-26T02:11:42.794Z,80.58
2019-06-26T02:12:42.790Z,80.48
2019-06-26T02:13:42.747Z,80.48
2019-06-26T02:14:42.736Z,80.58
2019-06-26T02:15:42.729Z,80.48
2019-06-26T02:16:42.719Z,80.68
2019-06-26T02:17:42.736Z,80.48
2019-06-26T02:18:42.695Z,80.48
2019-06-26T02:19:42.684Z,81.22
2019-06-26T02:20:42.676Z,81.12
2019-06-26T02:21:42.666Z,81.12
2019-06-26T02:22:42.679Z,81.52
2019-06-26T02:23:42.641Z,80.92
2019-06-26T02:24:42.650Z,81.12
2019-06-26T02:25:42.626Z,81.52
2019-06-26T02:26:42.619Z,81.52
2019-06-26T02:27:42.627Z,81.22
2019-06-26T02:28:42.589Z,81.42
2019-06-26T02:29:42.579Z,81.42
2019-06-26T02:30:42.576Z,81.76
2019-06-26T02:31:42.561Z,81.85
2019-06-26T02:32:42.583Z,82.35
2019-06-26T02:33:42.537Z,82.35
2019-06-26T02:34:42.527Z,82.26
2019-06-26T02:35:42.517Z,82.56
2019-06-26T02:36:42.508Z,82.15
2019-06-26T02:37:42.523Z,82.65
2019-06-26T02:38:42.482Z,82.95
2019-06-26T02:39:42.486Z,82.75
2019-06-26T02:40:42.483Z,82.65
2019-06-26T02:41:42.460Z,83.05
2019-06-26T02:42:42.476Z,83.00
2019-06-26T02:43:42.436Z,82.95
2019-06-26T02:44:52.806Z,83.25
2019-06-26T02:45:43.414Z,82.95
2019-06-26T02:46:42.411Z,82.95
2019-06-26T02:47:42.425Z,82.95
2019-06-26T02:48:42.385Z,83.55
2019-06-26T02:49:42.373Z,83.19
2019-06-26T02:50:42.358Z,83.35
2019-06-26T02:51:42.362Z,83.19
2019-06-26T02:52:42.384Z,83.35
2019-06-26T02:53:42.340Z,83.35
2019-06-26T02:54:42.319Z,83.19
2019-06-26T02:55:42.314Z,83.09
2019-06-26T02:56:42.304Z,83.35
2019-06-26T02:57:42.295Z,83.29
2019-06-26T02:58:42.311Z,83.29
2019-06-26T02:59:42.266Z,83.25
2019-06-26T03:00:42.269Z,83.29
2019-06-26T03:01:42.248Z,83.25
2019-06-26T03:02:42.240Z,83.55
2019-06-26T03:03:42.248Z,83.45
2019-06-26T03:04:42.237Z,83.79
2019-06-26T03:05:42.206Z,83.29
2019-06-26T03:06:42.196Z,83.99
2019-06-26T03:07:42.186Z,84.79
2019-06-26T03:08:42.197Z,85.03
2019-06-26T03:09:42.163Z,84.33
2019-06-26T03:10:42.159Z,84.03
2019-06-26T03:11:42.143Z,84.73
2019-06-26T03:12:42.142Z,85.03
2019-06-26T03:13:42.145Z,85.57
2019-06-26T03:14:42.112Z,85.87
2019-06-26T03:15:42.109Z,86.27
2019-06-26T03:16:42.090Z,85.67
2019-06-26T03:17:54.722Z,86.07
2019-06-26T03:18:43.088Z,85.81
2019-06-26T03:19:42.054Z,86.91
2019-06-26T03:20:42.046Z,86.11
2019-06-26T03:21:42.038Z,86.71
2019-06-26T03:22:42.022Z,87.11
2019-06-26T03:23:42.041Z,87.51
2019-06-26T03:24:42.026Z,87.21
2019-06-26T03:25:41.990Z,87.25
2019-06-26T03:26:41.999Z,87.15
2019-06-26T03:27:41.976Z,88.05
2019-06-26T03:28:41.993Z,87.25
2019-06-26T03:29:41.955Z,87.30
2019-06-26T03:30:41.943Z,87.21
2019-06-26T03:31:41.931Z,87.30
2019-06-26T03:32:41.940Z,88.01
2019-06-26T03:33:42.017Z,87.21
2019-06-26T03:34:41.898Z,87.41
2019-06-26T03:35:41.888Z,87.61
2019-06-26T03:36:41.877Z,87.61
2019-06-26T03:37:41.872Z,87.51
2019-06-26T03:38:41.883Z,87.21
2019-06-26T03:39:41.847Z,86.91
2019-06-26T03:40:41.840Z,87.61
2019-06-26T03:41:41.831Z,87.61
2019-06-26T03:42:41.817Z,87.51
2019-06-26T03:43:41.914Z,87.41
2019-06-26T03:44:41.797Z,87.61
2019-06-26T03:45:41.782Z,87.61
2019-06-26T03:46:41.775Z,87.41
2019-06-26T03:47:41.835Z,87.61
2019-06-26T03:48:41.781Z,87.61
2019-06-26T03:49:41.746Z,87.11
2019-06-26T03:50:41.746Z,87.57
2019-06-26T03:51:41.743Z,86.57
2019-06-26T03:52:41.796Z,86.77
2019-06-26T03:53:41.729Z,86.17
2019-06-26T03:54:41.729Z,85.57
2019-06-26T03:55:41.718Z,85.67
2019-06-26T03:56:41.670Z,85.72
2019-06-26T03:57:41.679Z,84.63
2019-06-26T03:58:41.674Z,84.89
2019-06-26T03:59:41.636Z,83.65
2019-06-26T04:00:41.622Z,83.15
2019-06-26T04:01:41.620Z,83.01
2019-06-26T04:02:41.635Z,82.32
2019-06-26T04:03:42.045Z,81.77
2019-06-26T04:04:41.585Z,81.68
2019-06-26T04:05:41.575Z,81.24
2019-06-26T04:06:41.789Z,80.54
2019-06-26T04:07:41.553Z,80.00
2019-06-26T04:08:41.573Z,79.71
2019-06-26T04:09:41.540Z,79.51
2019-06-26T04:10:43.454Z,78.97
2019-06-26T04:11:41.530Z,78.48
2019-06-26T04:12:41.501Z,77.94
2019-06-26T04:13:41.533Z,77.75
2019-06-26T04:14:41.514Z,77.41
2019-06-26T04:15:42.922Z,76.42
2019-06-26T04:16:41.464Z,76.72
2019-06-26T04:17:41.450Z,76.18
2019-06-26T04:18:41.478Z,76.04
2019-06-26T04:19:41.431Z,74.65
2019-06-26T04:20:41.440Z,74.35
2019-06-26T04:21:41.409Z,74.42
2019-06-26T04:22:41.399Z,74.22
2019-06-26T04:23:41.411Z,74.12
2019-06-26T04:24:41.377Z,73.53
2019-06-26T04:25:41.365Z,73.49
2019-06-26T04:26:41.354Z,72.89
2019-06-26T04:27:41.345Z,72.17
2019-06-26T04:28:41.359Z,72.07
2019-06-26T04:29:41.323Z,71.67
2019-06-26T04:30:41.312Z,71.44
2019-06-26T04:31:41.313Z,70.94
2019-06-26T04:32:41.294Z,70.94
2019-06-26T04:33:41.307Z,69.82
2019-06-26T04:34:41.273Z,70.57
2019-06-26T04:35:41.260Z,69.46
2019-06-26T04:36:41.253Z,69.06
2019-06-26T04:37:41.260Z,68.76
2019-06-26T04:38:41.258Z,68.04
2019-06-26T04:39:41.218Z,69.06
2019-06-26T04:40:41.232Z,67.94
2019-06-26T04:41:41.196Z,67.94
2019-06-26T04:42:41.191Z,67.91
2019-06-26T04:43:41.206Z,67.74
2019-06-26T04:44:41.163Z,68.33
2019-06-26T04:45:54.151Z,68.20
2019-06-26T04:46:42.142Z,66.42
2019-06-26T04:47:41.129Z,66.88
2019-06-26T04:48:41.146Z,66.78
2019-06-26T04:49:41.144Z,65.47
2019-06-26T04:50:41.103Z,65.77
2019-06-26T04:51:41.097Z,65.47
2019-06-26T04:52:41.084Z,65.83
2019-06-26T04:53:41.098Z,65.44
2019-06-26T04:54:41.062Z,64.95
2019-06-26T04:55:41.050Z,64.81
2019-06-26T04:56:41.038Z,65.21
2019-06-26T04:57:41.036Z,65.24
2019-06-26T04:58:41.048Z,65.01
2019-06-26T04:59:41.030Z,65.08
2019-06-26T05:00:40.997Z,63.47
2019-06-26T05:01:41.069Z,64.16
2019-06-26T05:02:41.102Z,62.95
2019-06-26T05:03:41.146Z,63.54
2019-06-26T05:04:40.987Z,62.62
2019-06-26T05:05:44.352Z,62.10
2019-06-26T05:06:40.937Z,61.90
2019-06-26T05:07:40.928Z,62.00
2019-06-26T05:08:40.973Z,61.51
2019-06-26T05:09:40.903Z,60.82
2019-06-26T05:10:40.895Z,61.38
2019-06-26T05:11:40.887Z,61.08
2019-06-26T05:12:40.877Z,60.37
2019-06-26T05:13:40.890Z,60.76
2019-06-26T05:14:40.855Z,59.48
2019-06-26T05:15:40.917Z,60.89
2019-06-26T05:16:40.837Z,59.88
2019-06-26T05:17:40.828Z,60.37
2019-06-26T05:18:40.841Z,60.20
2019-06-26T05:19:40.804Z,60.89
2019-06-26T05:20:40.799Z,61.83
2019-06-26T05:21:40.782Z,61.83
2019-06-26T05:22:40.773Z,61.41
2019-06-26T05:23:40.786Z,60.72
2019-06-26T05:24:40.759Z,61.08
2019-06-26T05:25:40.729Z,60.69
2019-06-26T05:26:40.728Z,60.10
2019-06-26T05:27:40.717Z,59.68
2019-06-26T05:28:40.749Z,59.71
2019-06-26T05:29:40.694Z,61.61
2019-06-26T05:30:40.710Z,61.21
2019-06-26T05:31:40.675Z,60.89
2019-06-26T05:32:40.667Z,59.71
2019-06-26T05:33:40.654Z,59.88
2019-06-26T05:34:40.640Z,59.81
2019-06-26T05:35:40.676Z,60.50
2019-06-26T05:36:40.619Z,58.99
2019-06-26T05:37:40.608Z,59.06
2019-06-26T05:38:40.601Z,59.58
2019-06-26T05:39:40.591Z,60.39
2019-06-26T05:40:40.605Z,61.41
2019-06-26T05:41:40.566Z,61.24
2019-06-26T05:42:40.560Z,61.41
2019-06-26T05:43:40.550Z,61.38
2019-06-26T05:44:40.598Z,60.17
2019-06-26T05:45:40.554Z,58.99
2019-06-26T05:46:40.590Z,59.26
2019-06-26T05:47:40.508Z,58.84
2019-06-26T05:48:40.494Z,59.26
2019-06-26T05:49:40.490Z,60.76
2019-06-26T05:50:40.500Z,61.11
2019-06-26T05:51:40.461Z,61.41
2019-06-26T05:52:42.690Z,61.71
2019-06-26T05:53:40.445Z,61.90
2019-06-26T05:54:40.434Z,60.66
2019-06-26T05:55:40.476Z,60.07
2019-06-26T05:56:40.436Z,60.07
2019-06-26T05:57:41.930Z,60.17
2019-06-26T05:58:40.453Z,59.68
2019-06-26T05:59:40.386Z,59.36
2019-06-26T06:00:40.417Z,59.33
2019-06-26T06:01:40.404Z,59.06
2019-06-26T06:02:40.350Z,59.39
2019-06-26T06:03:40.338Z,60.07
2019-06-26T06:04:40.337Z,59.55
2019-06-26T06:05:40.326Z,60.24
2019-06-26T06:06:41.999Z,59.13
2019-06-26T06:07:40.305Z,58.94
2019-06-26T06:08:40.302Z,59.62
2019-06-26T06:09:40.306Z,59.84
2019-06-26T06:10:40.270Z,59.23
2019-06-26T06:11:40.288Z,58.42
2019-06-26T06:12:40.256Z,58.71
2019-06-26T06:13:40.241Z,58.00
2019-06-26T06:14:40.229Z,58.39
2019-06-26T06:15:40.215Z,56.69
2019-06-26T06:16:47.287Z,56.92
2019-06-26T06:17:41.254Z,57.14
2019-06-26T06:18:40.195Z,58.64
2019-06-26T06:19:40.213Z,58.54
2019-06-26T06:20:40.173Z,58.57
2019-06-26T06:21:40.184Z,59.06
2019-06-26T06:22:40.149Z,58.71
2019-06-26T06:23:40.139Z,58.12
2019-06-26T06:24:40.127Z,57.92
2019-06-26T06:25:40.123Z,57.90
2019-06-26T06:26:40.130Z,57.86
2019-06-26T06:27:40.099Z,58.86
2019-06-26T06:28:40.085Z,59.19
2019-06-26T06:29:40.097Z,59.55
2019-06-26T06:30:40.070Z,58.96
2019-06-26T06:31:40.088Z,59.68
2019-06-26T06:32:40.054Z,59.28
2019-06-26T06:33:40.057Z,58.08
2019-06-26T06:34:40.051Z,58.67
2019-06-26T06:35:40.019Z,58.25
2019-06-26T06:36:40.032Z,57.01
2019-06-26T06:37:39.994Z,57.01
2019-06-26T06:38:40.054Z,56.10
2019-06-26T06:39:39.990Z,55.98
2019-06-26T06:40:39.989Z,54.87
2019-06-26T06:41:43.251Z,54.60
2019-06-26T06:42:39.943Z,55.91
2019-06-26T06:43:39.932Z,56.74
2019-06-26T06:44:39.922Z,55.93
2019-06-26T06:45:39.925Z,55.64
2019-06-26T06:46:39.952Z,55.35
2019-06-26T06:47:39.896Z,55.54
2019-06-26T06:48:39.880Z,55.54
2019-06-26T06:49:39.874Z,55.22
2019-06-26T06:50:39.860Z,53.20
2019-06-26T06:51:39.880Z,53.38
2019-06-26T06:52:39.840Z,52.05
2019-06-26T06:53:39.830Z,51.44
2019-06-26T06:54:39.826Z,50.61
2019-06-26T06:55:39.806Z,51.54
2019-06-26T06:56:39.862Z,51.76
2019-06-26T06:57:39.791Z,51.05
2019-06-26T06:58:39.778Z,50.63
2019-06-26T06:59:39.790Z,51.22
2019-06-26T07:00:39.824Z,50.32
2019-06-26T07:01:39.750Z,50.83
2019-06-26T07:02:39.773Z,50.61
2019-06-26T07:03:39.732Z,50.54
2019-06-26T07:04:39.727Z,50.81
2019-06-26T07:05:39.725Z,49.71
2019-06-26T07:06:39.699Z,48.32
2019-06-26T07:07:39.716Z,50.61
2019-06-26T07:08:39.676Z,49.51
2019-06-26T07:09:39.670Z,49.22
2019-06-26T07:10:39.658Z,50.29
2019-06-26T07:11:39.651Z,49.36
2019-06-26T07:12:39.666Z,49.12
2019-06-26T07:13:39.815Z,49.02
2019-06-26T07:14:39.619Z,48.93
2019-06-26T07:15:39.608Z,48.93
2019-06-26T07:16:39.601Z,48.63
2019-06-26T07:17:39.627Z,48.93
2019-06-26T07:18:39.584Z,49.00
2019-06-26T07:19:39.570Z,48.12
2019-06-26T07:20:39.553Z,48.41
2019-06-26T07:21:39.570Z,49.00
2019-06-26T07:22:39.566Z,47.97
2019-06-26T07:23:39.527Z,47.56
2019-06-26T07:24:39.532Z,47.95
2019-06-26T07:25:39.509Z,48.95
2019-06-26T07:26:39.499Z,49.27
2019-06-26T07:27:39.539Z,50.49
2019-06-26T07:28:39.484Z,50.34
2019-06-26T07:29:39.474Z,50.78
2019-06-26T07:30:39.470Z,50.95
2019-06-26T07:31:39.447Z,52.34
2019-06-26T07:32:39.469Z,52.10
2019-06-26T07:33:39.430Z,52.91
2019-06-26T07:34:39.420Z,53.69
2019-06-26T07:35:39.418Z,52.76
2019-06-26T07:36:39.401Z,51.56
2019-06-26T07:37:39.768Z,50.68
2019-06-26T07:38:39.377Z,51.32
2019-06-26T07:39:39.418Z,50.02
2019-06-26T07:40:39.359Z,49.71
2019-06-26T07:41:39.346Z,49.78
2019-06-26T07:42:39.364Z,49.07
2019-06-26T07:43:39.330Z,48.27
2019-06-26T07:44:39.324Z,49.56
2019-06-26T07:45:39.307Z,48.88
2019-06-26T07:46:39.301Z,50.51
2019-06-26T07:47:43.603Z,50.22
2019-06-26T07:48:39.277Z,49.51
2019-06-26T07:49:39.300Z,49.82
2019-06-26T07:50:39.259Z,51.37
2019-06-26T07:51:39.257Z,52.25
2019-06-26T07:52:39.290Z,52.03
2019-06-26T07:53:39.229Z,50.61
2019-06-26T07:54:39.218Z,50.61
2019-06-26T07:55:40.569Z,49.98
2019-06-26T07:56:39.198Z,48.17
2019-06-26T07:57:39.188Z,47.44
2019-06-26T07:58:39.229Z,48.17
2019-06-26T07:59:39.171Z,47.88
2019-06-26T08:00:39.159Z,47.29
2019-06-26T08:01:39.150Z,49.61
2019-06-26T08:02:39.150Z,48.39
2019-06-26T08:03:39.156Z,47.90
2019-06-26T08:04:39.119Z,47.49
2019-06-26T08:05:42.696Z,47.34
2019-06-26T08:06:39.106Z,47.58
2019-06-26T08:07:39.088Z,47.78
2019-06-26T08:08:39.130Z,47.29
2019-06-26T08:09:39.098Z,49.00
2019-06-26T08:10:39.069Z,49.07
2019-06-26T08:11:39.058Z,49.32
2019-06-26T08:12:39.049Z,48.34
2019-06-26T08:13:39.075Z,47.29
2019-06-26T08:14:39.029Z,47.27
2019-06-26T08:15:39.026Z,45.86
2019-06-26T08:16:39.083Z,44.94
2019-06-26T08:17:39.018Z,45.15
2019-06-26T08:18:39.014Z,47.56
2019-06-26T08:19:38.984Z,47.78
2019-06-26T08:20:55.208Z,47.29
2019-06-26T08:21:39.960Z,47.61
2019-06-26T08:22:38.951Z,49.63
2019-06-26T08:23:39.010Z,49.02
2019-06-26T08:24:38.934Z,49.14
2019-06-26T08:25:38.928Z,50.32
2019-06-26T08:26:38.918Z,49.12
2019-06-26T08:27:38.904Z,47.97
2019-06-26T08:28:38.929Z,48.00
2019-06-26T08:29:38.885Z,48.90
2019-06-26T08:30:38.911Z,48.02
2019-06-26T08:31:38.864Z,48.14
2019-06-26T08:32:38.864Z,48.32
2019-06-26T08:33:38.856Z,49.19
2019-06-26T08:34:38.838Z,48.17
2019-06-26T08:35:38.852Z,46.31
2019-06-26T08:36:38.821Z,47.53
2019-06-26T08:37:38.820Z,48.34
2019-06-26T08:38:38.808Z,47.48
2019-06-26T08:39:38.793Z,47.77
2019-06-26T08:40:38.810Z,48.87
2019-06-26T08:41:38.772Z,49.77
2019-06-26T08:42:38.763Z,48.55
2019-06-26T08:43:38.745Z,46.46
2019-06-26T08:44:38.751Z,44.92
2019-06-26T08:45:38.763Z,45.29
2019-06-26T08:46:38.740Z,44.93
2019-06-26T08:47:38.715Z,43.66
2019-06-26T08:48:40.546Z,44.30
2019-06-26T08:49:38.716Z,43.48
2019-06-26T08:50:38.711Z,42.87
2019-06-26T08:51:38.684Z,42.87
2019-06-26T08:52:38.674Z,42.80
2019-06-26T08:53:38.660Z,42.50
2019-06-26T08:54:38.666Z,41.63
2019-06-26T08:55:38.662Z,41.83
2019-06-26T08:56:38.645Z,40.95
2019-06-26T08:57:38.636Z,40.73
2019-06-26T08:58:38.617Z,40.03
2019-06-26T08:59:38.703Z,39.72
2019-06-26T09:00:38.620Z,40.23
2019-06-26T09:01:38.587Z,38.64
2019-06-26T09:02:38.586Z,39.72
2019-06-26T09:03:41.910Z,41.01
2019-06-26T09:04:38.570Z,39.90
2019-06-26T09:05:48.189Z,39.24
2019-06-26T09:06:39.553Z,39.41
2019-06-26T09:07:38.539Z,38.37
2019-06-26T09:08:38.526Z,39.57
2019-06-26T09:09:38.522Z,38.67
2019-06-26T09:10:38.530Z,39.76
2019-06-26T09:11:38.498Z,39.75
2019-06-26T09:12:38.495Z,39.43
2019-06-26T09:13:38.508Z,39.55
2019-06-26T09:14:38.467Z,39.84
2019-06-26T09:15:38.787Z,39.47
2019-06-26T09:16:38.453Z,39.98
2019-06-26T09:17:38.443Z,41.26
2019-06-26T09:18:38.435Z,40.66
2019-06-26T09:19:38.430Z,38.98
2019-06-26T09:20:38.465Z,39.18
2019-06-26T09:21:38.438Z,39.67
2019-06-26T09:22:38.402Z,39.98
2019-06-26T09:23:38.392Z,39.80
2019-06-26T09:24:38.385Z,41.89
2019-06-26T09:25:38.400Z,41.20
2019-06-26T09:26:38.369Z,41.60
2019-06-26T09:27:38.369Z,40.72
2019-06-26T09:28:38.490Z,40.09
2019-06-26T09:29:38.351Z,38.71
2019-06-26T09:30:38.368Z,38.09
2019-06-26T09:31:38.323Z,38.96
2019-06-26T09:32:38.316Z,36.79
2019-06-26T09:33:38.300Z,36.99
2019-06-26T09:34:38.294Z,37.84
2019-06-26T09:35:38.311Z,36.27
2019-06-26T09:36:38.281Z,35.05
2019-06-26T09:37:38.293Z,35.05
2019-06-26T09:38:38.266Z,36.35
2019-06-26T09:39:38.251Z,36.33
2019-06-26T09:40:38.296Z,37.03
2019-06-26T09:41:38.231Z,37.34
2019-06-26T09:42:38.230Z,35.80
2019-06-26T09:43:38.231Z,36.38
2019-06-26T09:44:38.207Z,37.01
2019-06-26T09:45:38.225Z,36.89
2019-06-26T09:46:38.190Z,36.97
2019-06-26T09:47:38.182Z,37.30
2019-06-26T09:48:51.333Z,37.28
2019-06-26T09:49:39.163Z,37.02
2019-06-26T09:50:38.183Z,36.83
2019-06-26T09:51:38.156Z,35.55
2019-06-26T09:52:38.140Z,36.83
2019-06-26T09:53:47.082Z,37.30
2019-06-26T09:54:39.130Z,37.08
2019-06-26T09:55:38.139Z,37.68
2019-06-26T09:56:38.104Z,38.83
2019-06-26T09:57:38.098Z,38.44
2019-06-26T09:58:38.094Z,39.57
2019-06-26T09:59:38.081Z,40.00
2019-06-26T10:00:38.104Z,41.93
2019-06-26T10:01:38.066Z,42.54
2019-06-26T10:02:38.059Z,41.83
2019-06-26T10:03:38.043Z,41.83
2019-06-26T10:04:38.040Z,42.49
2019-06-26T10:05:38.057Z,41.89
2019-06-26T10:06:38.030Z,40.41
2019-06-26T10:07:38.024Z,41.03
2019-06-26T10:08:38.009Z,42.40
2019-06-26T10:09:37.993Z,40.93
2019-06-26T10:10:38.021Z,40.47
2019-06-26T10:11:37.979Z,39.55
2019-06-26T10:12:37.972Z,39.37
2019-06-26T10:13:37.976Z,38.60
2019-06-26T10:14:47.382Z,38.56
2019-06-26T10:15:38.984Z,37.08
2019-06-26T10:16:37.936Z,36.95
2019-06-26T10:17:37.934Z,34.51
2019-06-26T10:18:37.924Z,35.43
2019-06-26T10:19:37.909Z,36.29
2019-06-26T10:20:37.944Z,36.27
2019-06-26T10:21:37.891Z,36.35
2019-06-26T10:22:37.880Z,36.95
2019-06-26T10:23:37.881Z,35.40
2019-06-26T10:24:37.864Z,35.85
2019-06-26T10:25:37.885Z,36.25
2019-06-26T10:26:37.853Z,38.32
2019-06-26T10:27:37.877Z,38.65
2019-06-26T10:28:37.843Z,38.89
2019-06-26T10:29:37.821Z,40.93
2019-06-26T10:30:37.846Z,39.18
2019-06-26T10:31:37.806Z,41.05
2019-06-26T10:32:37.796Z,38.39
2019-06-26T10:33:37.793Z,38.57
2019-06-26T10:34:37.781Z,38.39
2019-06-26T10:35:37.797Z,39.08
2019-06-26T10:36:37.761Z,40.68
2019-06-26T10:37:37.754Z,37.74
2019-06-26T10:38:37.746Z,37.50
2019-06-26T10:39:37.737Z,38.18
2019-06-26T10:40:37.754Z,37.31
2019-06-26T10:41:37.720Z,38.38
2019-06-26T10:42:37.708Z,38.54
2019-06-26T10:43:37.700Z,37.27
2019-06-26T10:44:37.697Z,37.18
2019-06-26T10:45:37.711Z,37.26
2019-06-26T10:46:37.676Z,38.52
2019-06-26T10:47:39.868Z,37.74
2019-06-26T10:48:37.663Z,37.37
2019-06-26T10:49:37.671Z,37.06
2019-06-26T10:50:47.953Z,37.06
2019-06-26T10:51:38.637Z,37.02
2019-06-26T10:52:37.642Z,36.81
2019-06-26T10:53:37.621Z,36.30
2019-06-26T10:54:37.623Z,36.04
2019-06-26T10:55:37.628Z,36.32
2019-06-26T10:56:37.597Z,36.77
2019-06-26T10:57:37.588Z,37.94
2019-06-26T10:58:37.587Z,36.29
2019-06-26T10:59:37.565Z,36.32
2019-06-26T11:00:37.588Z,38.98
2019-06-26T11:01:37.599Z,39.24
2019-06-26T11:02:37.538Z,39.03
2019-06-26T11:03:37.535Z,39.82
2019-06-26T11:04:37.526Z,39.61
2019-06-26T11:05:37.541Z,39.78
2019-06-26T11:06:37.509Z,38.21
2019-06-26T11:07:37.495Z,37.85
2019-06-26T11:08:37.488Z,37.22
2019-06-26T11:09:37.480Z,38.40
2019-06-26T11:10:37.481Z,37.34
2019-06-26T11:11:37.494Z,36.93
2019-06-26T11:12:37.457Z,37.59
2019-06-26T11:13:37.448Z,37.74
2019-06-26T11:14:37.529Z,34.80
2019-06-26T11:15:37.430Z,35.77
2019-06-26T11:16:37.632Z,37.30
2019-06-26T11:17:37.442Z,38.62
2019-06-26T11:18:37.473Z,37.89
2019-06-26T11:19:43.624Z,38.02
2019-06-26T11:20:38.385Z,39.20
2019-06-26T11:21:37.430Z,38.56
2019-06-26T11:22:37.369Z,38.64
2019-06-26T11:23:37.369Z,37.97
2019-06-26T11:24:37.353Z,38.87
2019-06-26T11:25:37.357Z,38.87
2019-06-26T11:26:37.362Z,39.47
2019-06-26T11:27:37.323Z,39.67
2019-06-26T11:28:37.338Z,40.55
2019-06-26T11:29:37.315Z,40.83
2019-06-26T11:30:37.320Z,39.82
2019-06-26T11:31:37.320Z,38.71
2019-06-26T11:32:37.294Z,39.49
2019-06-26T11:33:37.339Z,38.29
2019-06-26T11:34:37.291Z,37.84
2019-06-26T11:35:37.255Z,39.12
2019-06-26T11:36:37.275Z,39.67
2019-06-26T11:37:37.242Z,39.69
2019-06-26T11:38:37.244Z,41.42
2019-06-26T11:39:37.229Z,41.05
2019-06-26T11:40:37.217Z,40.83
2019-06-26T11:41:37.229Z,41.05
2019-06-26T11:42:37.206Z,40.72
2019-06-26T11:43:37.190Z,40.08
2019-06-26T11:44:37.201Z,38.09
2019-06-26T11:45:37.176Z,38.19
2019-06-26T11:46:37.226Z,39.80
2019-06-26T11:47:37.152Z,42.00
2019-06-26T11:48:37.161Z,42.22
2019-06-26T11:49:37.135Z,42.40
2019-06-26T11:50:37.128Z,40.93
2019-06-26T11:51:37.150Z,41.01
2019-06-26T11:52:37.121Z,39.67
2019-06-26T11:53:37.104Z,39.47
2019-06-26T11:54:37.092Z,38.34
2019-06-26T11:55:37.103Z,39.86
2019-06-26T11:56:37.104Z,38.59
2019-06-26T11:57:37.066Z,40.06
2019-06-26T11:58:37.057Z,41.63
2019-06-26T11:59:37.051Z,42.24
2019-06-26T12:00:39.282Z,43.82
2019-06-26T12:01:37.068Z,42.69
2019-06-26T12:02:37.030Z,43.27
2019-06-26T12:03:37.040Z,42.88
2019-06-26T12:04:37.006Z,42.47
2019-06-26T12:05:37.000Z,43.12
2019-06-26T12:06:37.021Z,43.99
2019-06-26T12:07:36.987Z,44.60
2019-06-26T12:08:36.983Z,43.61
2019-06-26T12:09:37.014Z,43.12
2019-06-26T12:10:37.031Z,44.38
2019-06-26T12:11:36.975Z,43.25
2019-06-26T12:12:36.942Z,42.50
2019-06-26T12:13:37.586Z,41.08
2019-06-26T12:14:36.918Z,41.78
2019-06-26T12:15:36.941Z,41.55
2019-06-26T12:16:36.925Z,41.33
2019-06-26T12:17:36.897Z,40.92
2019-06-26T12:18:36.885Z,40.56
2019-06-26T12:19:36.877Z,40.89
2019-06-26T12:20:36.866Z,41.93
2019-06-26T12:21:36.888Z,42.60
2019-06-26T12:22:36.858Z,42.41
2019-06-26T12:23:36.839Z,42.38
2019-06-26T12:24:36.853Z,43.75
2019-06-26T12:25:36.836Z,44.41
2019-06-26T12:26:36.884Z,43.99
2019-06-26T12:27:36.806Z,45.65
2019-06-26T12:28:36.803Z,43.78
2019-06-26T12:29:36.788Z,43.64
2019-06-26T12:30:36.778Z,42.74
2019-06-26T12:31:36.794Z,42.24
2019-06-26T12:32:42.192Z,43.04
2019-06-26T12:33:37.764Z,44.13
2019-06-26T12:34:36.743Z,43.76
2019-06-26T12:35:36.734Z,44.15
2019-06-26T12:36:36.757Z,43.71
2019-06-26T12:37:38.233Z,45.00
2019-06-26T12:38:36.708Z,43.61
2019-06-26T12:39:36.839Z,42.28
2019-06-26T12:40:36.691Z,44.79
2019-06-26T12:41:36.707Z,45.39
2019-06-26T12:42:36.678Z,44.81
2019-06-26T12:43:36.667Z,46.02
2019-06-26T12:44:36.658Z,46.12
2019-06-26T12:45:36.654Z,46.53
2019-06-26T12:46:36.682Z,45.90
2019-06-26T12:47:36.800Z,45.39
2019-06-26T12:48:36.625Z,45.10
2019-06-26T12:49:36.616Z,46.39
2019-06-26T12:50:36.608Z,46.04
2019-06-26T12:51:36.622Z,47.46
2019-06-26T12:52:36.590Z,45.78